sensor_id;sensor_type;location;lat;lon;timestamp;P1;durP1;ratioP1;P2;durP2;ratioP2
52015;SDS011;38032;53.326;6.472;2022-09-03T00:01:47;3.72;;;2.28;;
52015;SDS011;38032;53.326;6.472;2022-09-03T00:04:21;4.45;;;2.60;;
52015;SDS011;38032;53.326;6.472;2022-09-03T00:06:57;4.20;;;2.40;;
52015;SDS011;38032;53.326;6.472;2022-09-03T00:09:29;6.78;;;2.33;;
52015;SDS011;38032;53.326;6.472;2022-09-03T00:12:10;4.70;;;2.53;;
52015;SDS011;38032;53.326;6.472;2022-09-03T00:14:50;4.57;;;2.92;;
52015;SDS011;38032;53.326;6.472;2022-09-03T00:17:23;3.67;;;2.53;;
52015;SDS011;38032;53.326;6.472;2022-09-03T00:19:56;6.22;;;2.92;;
52015;SDS011;38032;53.326;6.472;2022-09-03T00:22:27;6.50;;;2.92;;
52015;SDS011;38032;53.326;6.472;2022-09-03T00:24:58;4.93;;;3.03;;
52015;SDS011;38032;53.326;6.472;2022-09-03T00:27:28;7.22;;;2.88;;
52015;SDS011;38032;53.326;6.472;2022-09-03T00:30:09;4.65;;;2.92;;
52015;SDS011;38032;53.326;6.472;2022-09-03T00:35:29;8.45;;;2.80;;
52015;SDS011;38032;53.326;6.472;2022-09-03T00:38:00;5.82;;;3.10;;
52015;SDS011;38032;53.326;6.472;2022-09-03T00:43:14;3.80;;;2.75;;
52015;SDS011;38032;53.326;6.472;2022-09-03T00:46:03;8.23;;;3.00;;
52015;SDS011;38032;53.326;6.472;2022-09-03T00:48:47;3.90;;;2.80;;
52015;SDS011;38032;53.326;6.472;2022-09-03T00:51:36;5.55;;;2.97;;
52015;SDS011;38032;53.326;6.472;2022-09-03T00:54:39;5.00;;;2.70;;
52015;SDS011;38032;53.326;6.472;2022-09-03T01:02:33;6.30;;;3.22;;
52015;SDS011;38032;53.326;6.472;2022-09-03T01:07:36;5.07;;;2.67;;
52015;SDS011;38032;53.326;6.472;2022-09-03T01:12:43;5.50;;;2.60;;
52015;SDS011;38032;53.326;6.472;2022-09-03T01:15:27;5.13;;;2.45;;
52015;SDS011;38032;53.326;6.472;2022-09-03T01:20:40;4.50;;;2.10;;
52015;SDS011;38032;53.326;6.472;2022-09-03T01:26:30;3.00;;;1.92;;
52015;SDS011;38032;53.326;6.472;2022-09-03T01:29:02;5.22;;;2.10;;
52015;SDS011;38032;53.326;6.472;2022-09-03T01:34:12;2.90;;;1.90;;
52015;SDS011;38032;53.326;6.472;2022-09-03T01:37:04;3.95;;;1.90;;
52015;SDS011;38032;53.326;6.472;2022-09-03T01:42:32;4.97;;;2.00;;
52015;SDS011;38032;53.326;6.472;2022-09-03T01:45:13;6.32;;;2.10;;
52015;SDS011;38032;53.326;6.472;2022-09-03T01:50:42;4.25;;;1.80;;
52015;SDS011;38032;53.326;6.472;2022-09-03T01:53:18;5.20;;;2.20;;
52015;SDS011;38032;53.326;6.472;2022-09-03T01:56:01;5.47;;;1.85;;
52015;SDS011;38032;53.326;6.472;2022-09-03T01:58:45;3.10;;;1.83;;
52015;SDS011;38032;53.326;6.472;2022-09-03T02:01:21;4.88;;;1.90;;
52015;SDS011;38032;53.326;6.472;2022-09-03T02:03:53;2.40;;;1.70;;
52015;SDS011;38032;53.326;6.472;2022-09-03T02:06:24;3.33;;;1.92;;
52015;SDS011;38032;53.326;6.472;2022-09-03T02:08:51;4.97;;;2.17;;
52015;SDS011;38032;53.326;6.472;2022-09-03T02:11:17;2.95;;;1.80;;
52015;SDS011;38032;53.326;6.472;2022-09-03T02:13:44;6.18;;;2.00;;
52015;SDS011;38032;53.326;6.472;2022-09-03T02:16:16;4.03;;;2.00;;
52015;SDS011;38032;53.326;6.472;2022-09-03T02:18:46;2.95;;;2.00;;
52015;SDS011;38032;53.326;6.472;2022-09-03T02:21:16;3.50;;;2.00;;
52015;SDS011;38032;53.326;6.472;2022-09-03T02:23:44;3.35;;;1.90;;
52015;SDS011;38032;53.326;6.472;2022-09-03T02:26:11;3.60;;;2.17;;
52015;SDS011;38032;53.326;6.472;2022-09-03T02:28:39;3.45;;;2.00;;
52015;SDS011;38032;53.326;6.472;2022-09-03T02:31:05;2.70;;;1.70;;
52015;SDS011;38032;53.326;6.472;2022-09-03T02:33:34;2.80;;;1.88;;
52015;SDS011;38032;53.326;6.472;2022-09-03T02:36:15;2.63;;;2.10;;
52015;SDS011;38032;53.326;6.472;2022-09-03T02:38:45;3.35;;;2.10;;
52015;SDS011;38032;53.326;6.472;2022-09-03T02:41:12;2.80;;;1.83;;
52015;SDS011;38032;53.326;6.472;2022-09-03T02:46:22;3.08;;;1.83;;
52015;SDS011;38032;53.326;6.472;2022-09-03T02:48:52;2.38;;;1.88;;
52015;SDS011;38032;53.326;6.472;2022-09-03T02:51:19;3.90;;;1.95;;
52015;SDS011;38032;53.326;6.472;2022-09-03T02:53:44;4.68;;;2.13;;
52015;SDS011;38032;53.326;6.472;2022-09-03T02:56:11;3.60;;;2.08;;
52015;SDS011;38032;53.326;6.472;2022-09-03T02:58:37;4.25;;;2.20;;
52015;SDS011;38032;53.326;6.472;2022-09-03T03:01:03;2.72;;;2.05;;
52015;SDS011;38032;53.326;6.472;2022-09-03T03:03:29;2.78;;;1.73;;
52015;SDS011;38032;53.326;6.472;2022-09-03T03:05:55;2.92;;;2.20;;
52015;SDS011;38032;53.326;6.472;2022-09-03T03:08:25;2.50;;;1.90;;
52015;SDS011;38032;53.326;6.472;2022-09-03T03:10:53;3.92;;;2.30;;
52015;SDS011;38032;53.326;6.472;2022-09-03T03:13:23;4.63;;;2.00;;
52015;SDS011;38032;53.326;6.472;2022-09-03T03:15:49;3.92;;;2.03;;
52015;SDS011;38032;53.326;6.472;2022-09-03T03:18:15;3.38;;;2.38;;
52015;SDS011;38032;53.326;6.472;2022-09-03T03:20:41;3.47;;;2.05;;
52015;SDS011;38032;53.326;6.472;2022-09-03T03:23:08;4.30;;;2.20;;
52015;SDS011;38032;53.326;6.472;2022-09-03T03:25:35;3.05;;;2.15;;
52015;SDS011;38032;53.326;6.472;2022-09-03T03:28:02;8.25;;;2.35;;
52015;SDS011;38032;53.326;6.472;2022-09-03T03:30:29;4.15;;;2.10;;
52015;SDS011;38032;53.326;6.472;2022-09-03T03:32:55;2.47;;;1.92;;
52015;SDS011;38032;53.326;6.472;2022-09-03T03:35:21;2.70;;;2.00;;
52015;SDS011;38032;53.326;6.472;2022-09-03T03:37:47;4.25;;;2.03;;
52015;SDS011;38032;53.326;6.472;2022-09-03T03:40:13;2.95;;;1.98;;
52015;SDS011;38032;53.326;6.472;2022-09-03T03:42:39;5.00;;;2.47;;
52015;SDS011;38032;53.326;6.472;2022-09-03T03:45:06;4.25;;;2.03;;
52015;SDS011;38032;53.326;6.472;2022-09-03T03:47:33;4.60;;;2.20;;
52015;SDS011;38032;53.326;6.472;2022-09-03T03:50:00;4.22;;;2.17;;
52015;SDS011;38032;53.326;6.472;2022-09-03T03:52:26;3.75;;;2.03;;
52015;SDS011;38032;53.326;6.472;2022-09-03T03:54:52;3.70;;;2.00;;
52015;SDS011;38032;53.326;6.472;2022-09-03T03:57:18;4.03;;;2.03;;
52015;SDS011;38032;53.326;6.472;2022-09-03T03:59:45;2.90;;;2.10;;
52015;SDS011;38032;53.326;6.472;2022-09-03T04:02:12;3.97;;;2.20;;
52015;SDS011;38032;53.326;6.472;2022-09-03T04:04:39;4.90;;;2.10;;
52015;SDS011;38032;53.326;6.472;2022-09-03T04:07:05;3.95;;;2.05;;
52015;SDS011;38032;53.326;6.472;2022-09-03T04:09:31;2.92;;;2.25;;
52015;SDS011;38032;53.326;6.472;2022-09-03T04:11:57;3.28;;;2.15;;
52015;SDS011;38032;53.326;6.472;2022-09-03T04:14:23;4.13;;;2.20;;
52015;SDS011;38032;53.326;6.472;2022-09-03T04:16:50;4.20;;;2.30;;
52015;SDS011;38032;53.326;6.472;2022-09-03T04:19:16;5.95;;;2.13;;
52015;SDS011;38032;53.326;6.472;2022-09-03T04:21:42;5.38;;;2.15;;
52015;SDS011;38032;53.326;6.472;2022-09-03T04:24:08;5.72;;;2.30;;
52015;SDS011;38032;53.326;6.472;2022-09-03T04:26:34;3.92;;;2.15;;
52015;SDS011;38032;53.326;6.472;2022-09-03T04:29:03;4.10;;;2.25;;
52015;SDS011;38032;53.326;6.472;2022-09-03T04:31:30;3.72;;;2.40;;
52015;SDS011;38032;53.326;6.472;2022-09-03T04:33:57;3.10;;;2.17;;
52015;SDS011;38032;53.326;6.472;2022-09-03T04:36:24;6.50;;;2.40;;
52015;SDS011;38032;53.326;6.472;2022-09-03T04:38:52;4.05;;;2.30;;
52015;SDS011;38032;53.326;6.472;2022-09-03T04:41:21;3.22;;;2.63;;
52015;SDS011;38032;53.326;6.472;2022-09-03T04:43:49;4.10;;;2.20;;
52015;SDS011;38032;53.326;6.472;2022-09-03T04:46:17;3.75;;;2.40;;
52015;SDS011;38032;53.326;6.472;2022-09-03T04:48:46;3.78;;;2.50;;
52015;SDS011;38032;53.326;6.472;2022-09-03T04:51:16;3.90;;;2.55;;
52015;SDS011;38032;53.326;6.472;2022-09-03T04:53:44;4.70;;;2.60;;
52015;SDS011;38032;53.326;6.472;2022-09-03T04:56:11;4.45;;;2.25;;
52015;SDS011;38032;53.326;6.472;2022-09-03T04:58:38;3.20;;;2.30;;
52015;SDS011;38032;53.326;6.472;2022-09-03T05:01:08;7.63;;;2.70;;
52015;SDS011;38032;53.326;6.472;2022-09-03T05:03:40;4.15;;;2.20;;
52015;SDS011;38032;53.326;6.472;2022-09-03T05:06:06;5.78;;;2.53;;
52015;SDS011;38032;53.326;6.472;2022-09-03T05:08:32;2.83;;;2.35;;
52015;SDS011;38032;53.326;6.472;2022-09-03T05:11:01;7.32;;;2.40;;
52015;SDS011;38032;53.326;6.472;2022-09-03T05:13:29;3.63;;;2.33;;
52015;SDS011;38032;53.326;6.472;2022-09-03T05:16:01;4.00;;;2.17;;
52015;SDS011;38032;53.326;6.472;2022-09-03T05:18:30;5.07;;;2.38;;
52015;SDS011;38032;53.326;6.472;2022-09-03T05:20:57;5.68;;;2.55;;
52015;SDS011;38032;53.326;6.472;2022-09-03T05:23:25;3.30;;;2.50;;
52015;SDS011;38032;53.326;6.472;2022-09-03T05:25:58;4.38;;;2.83;;
52015;SDS011;38032;53.326;6.472;2022-09-03T05:28:25;4.40;;;2.45;;
52015;SDS011;38032;53.326;6.472;2022-09-03T05:31:03;3.42;;;2.20;;
52015;SDS011;38032;53.326;6.472;2022-09-03T05:33:33;5.97;;;2.55;;
52015;SDS011;38032;53.326;6.472;2022-09-03T05:36:02;4.38;;;2.65;;
52015;SDS011;38032;53.326;6.472;2022-09-03T05:38:29;3.78;;;2.35;;
52015;SDS011;38032;53.326;6.472;2022-09-03T05:40:59;3.97;;;2.60;;
52015;SDS011;38032;53.326;6.472;2022-09-03T05:43:25;3.53;;;2.50;;
52015;SDS011;38032;53.326;6.472;2022-09-03T05:45:55;3.75;;;2.35;;
52015;SDS011;38032;53.326;6.472;2022-09-03T05:48:25;3.08;;;2.22;;
52015;SDS011;38032;53.326;6.472;2022-09-03T05:50:58;4.10;;;2.20;;
52015;SDS011;38032;53.326;6.472;2022-09-03T05:53:25;3.33;;;2.30;;
52015;SDS011;38032;53.326;6.472;2022-09-03T05:55:58;2.95;;;2.00;;
52015;SDS011;38032;53.326;6.472;2022-09-03T05:58:30;4.80;;;2.83;;
52015;SDS011;38032;53.326;6.472;2022-09-03T06:00:57;4.13;;;2.20;;
52015;SDS011;38032;53.326;6.472;2022-09-03T06:03:23;6.38;;;2.45;;
52015;SDS011;38032;53.326;6.472;2022-09-03T06:05:50;3.97;;;2.50;;
52015;SDS011;38032;53.326;6.472;2022-09-03T06:08:17;3.33;;;2.40;;
52015;SDS011;38032;53.326;6.472;2022-09-03T06:10:43;5.40;;;2.30;;
52015;SDS011;38032;53.326;6.472;2022-09-03T06:13:09;3.83;;;2.33;;
52015;SDS011;38032;53.326;6.472;2022-09-03T06:15:36;4.28;;;2.20;;
52015;SDS011;38032;53.326;6.472;2022-09-03T06:18:02;5.13;;;2.42;;
52015;SDS011;38032;53.326;6.472;2022-09-03T06:20:28;3.75;;;2.30;;
52015;SDS011;38032;53.326;6.472;2022-09-03T06:22:54;4.10;;;2.08;;
52015;SDS011;38032;53.326;6.472;2022-09-03T06:25:19;4.63;;;2.00;;
52015;SDS011;38032;53.326;6.472;2022-09-03T06:27:45;3.90;;;2.35;;
52015;SDS011;38032;53.326;6.472;2022-09-03T06:30:11;4.82;;;2.30;;
52015;SDS011;38032;53.326;6.472;2022-09-03T06:32:42;3.30;;;2.60;;
52015;SDS011;38032;53.326;6.472;2022-09-03T06:35:09;4.68;;;2.50;;
52015;SDS011;38032;53.326;6.472;2022-09-03T06:37:41;5.57;;;2.60;;
52015;SDS011;38032;53.326;6.472;2022-09-03T06:40:08;4.30;;;2.45;;
52015;SDS011;38032;53.326;6.472;2022-09-03T06:42:38;3.80;;;2.20;;
52015;SDS011;38032;53.326;6.472;2022-09-03T06:45:05;3.10;;;2.20;;
52015;SDS011;38032;53.326;6.472;2022-09-03T06:47:33;6.60;;;2.33;;
52015;SDS011;38032;53.326;6.472;2022-09-03T06:49:59;3.13;;;2.00;;
52015;SDS011;38032;53.326;6.472;2022-09-03T06:52:26;5.07;;;2.40;;
52015;SDS011;38032;53.326;6.472;2022-09-03T06:54:52;4.25;;;2.20;;
52015;SDS011;38032;53.326;6.472;2022-09-03T06:57:18;4.28;;;2.30;;
52015;SDS011;38032;53.326;6.472;2022-09-03T06:59:44;5.00;;;2.67;;
52015;SDS011;38032;53.326;6.472;2022-09-03T07:02:10;3.60;;;2.08;;
52015;SDS011;38032;53.326;6.472;2022-09-03T07:04:35;3.13;;;2.13;;
52015;SDS011;38032;53.326;6.472;2022-09-03T07:07:01;4.20;;;2.22;;
52015;SDS011;38032;53.326;6.472;2022-09-03T07:09:27;5.20;;;2.50;;
52015;SDS011;38032;53.326;6.472;2022-09-03T07:11:53;5.35;;;2.20;;
52015;SDS011;38032;53.326;6.472;2022-09-03T07:14:20;3.22;;;1.95;;
52015;SDS011;38032;53.326;6.472;2022-09-03T07:16:47;3.63;;;2.10;;
52015;SDS011;38032;53.326;6.472;2022-09-03T07:19:14;4.82;;;2.08;;
52015;SDS011;38032;53.326;6.472;2022-09-03T07:21:40;5.55;;;2.40;;
52015;SDS011;38032;53.326;6.472;2022-09-03T07:24:07;3.80;;;2.38;;
52015;SDS011;38032;53.326;6.472;2022-09-03T07:26:35;4.32;;;2.08;;
52015;SDS011;38032;53.326;6.472;2022-09-03T07:29:03;4.18;;;2.13;;
52015;SDS011;38032;53.326;6.472;2022-09-03T07:31:31;5.07;;;2.28;;
52015;SDS011;38032;53.326;6.472;2022-09-03T07:33:59;3.05;;;1.90;;
52015;SDS011;38032;53.326;6.472;2022-09-03T07:36:28;4.70;;;2.30;;
52015;SDS011;38032;53.326;6.472;2022-09-03T07:38:54;3.17;;;2.22;;
52015;SDS011;38032;53.326;6.472;2022-09-03T07:41:21;4.40;;;2.10;;
52015;SDS011;38032;53.326;6.472;2022-09-03T07:43:49;5.70;;;2.35;;
52015;SDS011;38032;53.326;6.472;2022-09-03T07:46:16;3.65;;;2.10;;
52015;SDS011;38032;53.326;6.472;2022-09-03T07:48:47;4.10;;;1.95;;
52015;SDS011;38032;53.326;6.472;2022-09-03T07:51:16;4.50;;;2.10;;
52015;SDS011;38032;53.326;6.472;2022-09-03T07:53:43;5.20;;;2.20;;
52015;SDS011;38032;53.326;6.472;2022-09-03T07:56:10;6.05;;;2.20;;
52015;SDS011;38032;53.326;6.472;2022-09-03T07:58:36;3.75;;;2.30;;
52015;SDS011;38032;53.326;6.472;2022-09-03T08:01:04;5.68;;;1.90;;
52015;SDS011;38032;53.326;6.472;2022-09-03T08:03:33;13.02;;;2.40;;
52015;SDS011;38032;53.326;6.472;2022-09-03T08:06:00;7.40;;;2.00;;
52015;SDS011;38032;53.326;6.472;2022-09-03T08:08:27;3.35;;;1.95;;
52015;SDS011;38032;53.326;6.472;2022-09-03T08:10:53;3.10;;;1.92;;
52015;SDS011;38032;53.326;6.472;2022-09-03T08:13:19;4.05;;;2.10;;
52015;SDS011;38032;53.326;6.472;2022-09-03T08:15:52;3.53;;;2.00;;
52015;SDS011;38032;53.326;6.472;2022-09-03T08:18:19;3.47;;;2.03;;
52015;SDS011;38032;53.326;6.472;2022-09-03T08:20:44;4.40;;;2.10;;
52015;SDS011;38032;53.326;6.472;2022-09-03T08:23:11;2.50;;;1.80;;
52015;SDS011;38032;53.326;6.472;2022-09-03T08:25:38;6.15;;;2.40;;
52015;SDS011;38032;53.326;6.472;2022-09-03T08:28:03;6.70;;;2.10;;
52015;SDS011;38032;53.326;6.472;2022-09-03T08:30:29;4.28;;;1.92;;
52015;SDS011;38032;53.326;6.472;2022-09-03T08:32:55;7.25;;;1.90;;
52015;SDS011;38032;53.326;6.472;2022-09-03T08:35:21;2.95;;;1.95;;
52015;SDS011;38032;53.326;6.472;2022-09-03T08:37:47;5.68;;;2.00;;
52015;SDS011;38032;53.326;6.472;2022-09-03T08:40:16;5.63;;;2.05;;
52015;SDS011;38032;53.326;6.472;2022-09-03T08:42:44;5.97;;;1.80;;
52015;SDS011;38032;53.326;6.472;2022-09-03T08:45:22;4.90;;;1.95;;
52015;SDS011;38032;53.326;6.472;2022-09-03T08:47:50;5.55;;;2.00;;
52015;SDS011;38032;53.326;6.472;2022-09-03T08:50:22;4.28;;;2.03;;
52015;SDS011;38032;53.326;6.472;2022-09-03T08:52:54;4.00;;;1.80;;
52015;SDS011;38032;53.326;6.472;2022-09-03T08:55:28;4.75;;;1.80;;
52015;SDS011;38032;53.326;6.472;2022-09-03T08:58:02;3.28;;;1.80;;
52015;SDS011;38032;53.326;6.472;2022-09-03T09:08:45;3.25;;;1.73;;
52015;SDS011;38032;53.326;6.472;2022-09-03T09:14:24;4.20;;;1.70;;
52015;SDS011;38032;53.326;6.472;2022-09-03T09:19:27;3.72;;;1.70;;
52015;SDS011;38032;53.326;6.472;2022-09-03T09:21:58;3.53;;;1.67;;
52015;SDS011;38032;53.326;6.472;2022-09-03T09:24:28;3.25;;;1.80;;
52015;SDS011;38032;53.326;6.472;2022-09-03T09:27:03;5.60;;;1.80;;
52015;SDS011;38032;53.326;6.472;2022-09-03T09:29:31;3.90;;;1.80;;
52015;SDS011;38032;53.326;6.472;2022-09-03T09:32:04;3.90;;;1.73;;
52015;SDS011;38032;53.326;6.472;2022-09-03T09:34:34;3.90;;;1.75;;
52015;SDS011;38032;53.326;6.472;2022-09-03T09:37:02;5.20;;;1.60;;
52015;SDS011;38032;53.326;6.472;2022-09-03T09:39:32;2.95;;;1.60;;
52015;SDS011;38032;53.326;6.472;2022-09-03T09:41:59;4.40;;;1.83;;
52015;SDS011;38032;53.326;6.472;2022-09-03T09:44:29;3.30;;;1.48;;
52015;SDS011;38032;53.326;6.472;2022-09-03T09:47:02;4.45;;;1.70;;
52015;SDS011;38032;53.326;6.472;2022-09-03T09:49:32;3.10;;;1.75;;
52015;SDS011;38032;53.326;6.472;2022-09-03T09:52:02;5.93;;;1.48;;
52015;SDS011;38032;53.326;6.472;2022-09-03T09:54:32;2.83;;;1.58;;
52015;SDS011;38032;53.326;6.472;2022-09-03T09:57:00;4.40;;;1.52;;
52015;SDS011;38032;53.326;6.472;2022-09-03T09:59:28;2.95;;;1.40;;
52015;SDS011;38032;53.326;6.472;2022-09-03T10:02:02;2.42;;;1.30;;
52015;SDS011;38032;53.326;6.472;2022-09-03T10:04:34;5.32;;;1.63;;
52015;SDS011;38032;53.326;6.472;2022-09-03T10:07:03;2.80;;;1.40;;
52015;SDS011;38032;53.326;6.472;2022-09-03T10:09:44;4.63;;;1.33;;
52015;SDS011;38032;53.326;6.472;2022-09-03T10:12:23;2.90;;;1.40;;
52015;SDS011;38032;53.326;6.472;2022-09-03T10:14:54;9.47;;;1.97;;
52015;SDS011;38032;53.326;6.472;2022-09-03T10:17:27;3.03;;;1.50;;
52015;SDS011;38032;53.326;6.472;2022-09-03T10:20:03;2.75;;;1.30;;
52015;SDS011;38032;53.326;6.472;2022-09-03T10:23:18;4.32;;;1.40;;
52015;SDS011;38032;53.326;6.472;2022-09-03T10:25:50;3.17;;;1.50;;
52015;SDS011;38032;53.326;6.472;2022-09-03T10:28:24;8.82;;;1.50;;
52015;SDS011;38032;53.326;6.472;2022-09-03T10:33:58;3.25;;;1.30;;
52015;SDS011;38032;53.326;6.472;2022-09-03T10:37:13;4.60;;;1.40;;
52015;SDS011;38032;53.326;6.472;2022-09-03T10:39:51;2.03;;;1.20;;
52015;SDS011;38032;53.326;6.472;2022-09-03T10:42:34;2.65;;;1.52;;
52015;SDS011;38032;53.326;6.472;2022-09-03T10:45:26;2.65;;;1.40;;
52015;SDS011;38032;53.326;6.472;2022-09-03T10:50:30;4.18;;;1.48;;
52015;SDS011;38032;53.326;6.472;2022-09-03T10:53:18;2.53;;;1.52;;
52015;SDS011;38032;53.326;6.472;2022-09-03T10:55:57;2.97;;;1.40;;
52015;SDS011;38032;53.326;6.472;2022-09-03T11:01:12;2.92;;;1.30;;
52015;SDS011;38032;53.326;6.472;2022-09-03T11:03:51;2.85;;;1.30;;
52015;SDS011;38032;53.326;6.472;2022-09-03T11:06:34;3.00;;;1.30;;
52015;SDS011;38032;53.326;6.472;2022-09-03T11:09:19;3.97;;;1.25;;
52015;SDS011;38032;53.326;6.472;2022-09-03T11:11:58;4.37;;;1.23;;
52015;SDS011;38032;53.326;6.472;2022-09-03T11:14:31;2.40;;;1.20;;
52015;SDS011;38032;53.326;6.472;2022-09-03T11:17:08;3.75;;;1.30;;
52015;SDS011;38032;53.326;6.472;2022-09-03T11:19:44;4.93;;;1.60;;
52015;SDS011;38032;53.326;6.472;2022-09-03T11:22:15;4.55;;;1.50;;
52015;SDS011;38032;53.326;6.472;2022-09-03T11:24:43;3.92;;;1.30;;
52015;SDS011;38032;53.326;6.472;2022-09-03T11:27:16;3.30;;;1.40;;
52015;SDS011;38032;53.326;6.472;2022-09-03T11:30:00;2.63;;;1.40;;
52015;SDS011;38032;53.326;6.472;2022-09-03T11:35:13;5.10;;;1.30;;
52015;SDS011;38032;53.326;6.472;2022-09-03T11:37:47;10.40;;;1.40;;
52015;SDS011;38032;53.326;6.472;2022-09-03T11:40:19;3.40;;;1.30;;
52015;SDS011;38032;53.326;6.472;2022-09-03T11:43:03;4.47;;;1.40;;
52015;SDS011;38032;53.326;6.472;2022-09-03T11:47:56;3.70;;;1.40;;
52015;SDS011;38032;53.326;6.472;2022-09-03T11:50:24;3.38;;;1.30;;
52015;SDS011;38032;53.326;6.472;2022-09-03T11:53:05;5.07;;;1.50;;
52015;SDS011;38032;53.326;6.472;2022-09-03T11:55:32;3.28;;;1.20;;
52015;SDS011;38032;53.326;6.472;2022-09-03T12:00:49;3.80;;;1.40;;
52015;SDS011;38032;53.326;6.472;2022-09-03T12:03:20;3.80;;;1.30;;
52015;SDS011;38032;53.326;6.472;2022-09-03T12:11:42;7.80;;;1.75;;
52015;SDS011;38032;53.326;6.472;2022-09-03T12:17:07;2.45;;;1.30;;
52015;SDS011;38032;53.326;6.472;2022-09-03T12:22:17;3.10;;;1.20;;
52015;SDS011;38032;53.326;6.472;2022-09-03T12:24:44;4.20;;;1.60;;
52015;SDS011;38032;53.326;6.472;2022-09-03T12:27:12;3.03;;;1.70;;
52015;SDS011;38032;53.326;6.472;2022-09-03T12:29:50;6.15;;;1.60;;
52015;SDS011;38032;53.326;6.472;2022-09-03T12:32:22;2.33;;;1.40;;
52015;SDS011;38032;53.326;6.472;2022-09-03T12:34:48;3.40;;;1.30;;
52015;SDS011;38032;53.326;6.472;2022-09-03T12:37:20;2.67;;;1.20;;
52015;SDS011;38032;53.326;6.472;2022-09-03T12:39:49;4.55;;;1.30;;
52015;SDS011;38032;53.326;6.472;2022-09-03T12:42:20;2.38;;;1.40;;
52015;SDS011;38032;53.326;6.472;2022-09-03T12:44:49;4.03;;;1.20;;
52015;SDS011;38032;53.326;6.472;2022-09-03T12:47:16;4.57;;;1.40;;
52015;SDS011;38032;53.326;6.472;2022-09-03T12:49:44;6.47;;;1.30;;
52015;SDS011;38032;53.326;6.472;2022-09-03T12:52:17;3.58;;;1.40;;
52015;SDS011;38032;53.326;6.472;2022-09-03T12:55:00;3.28;;;1.40;;
52015;SDS011;38032;53.326;6.472;2022-09-03T12:57:33;3.60;;;1.30;;
52015;SDS011;38032;53.326;6.472;2022-09-03T13:00:06;2.53;;;1.35;;
52015;SDS011;38032;53.326;6.472;2022-09-03T13:02:36;2.72;;;1.35;;
52015;SDS011;38032;53.326;6.472;2022-09-03T13:05:13;2.65;;;1.40;;
52015;SDS011;38032;53.326;6.472;2022-09-03T13:07:44;2.95;;;1.38;;
52015;SDS011;38032;53.326;6.472;2022-09-03T13:10:23;2.20;;;1.40;;
52015;SDS011;38032;53.326;6.472;2022-09-03T13:12:56;2.17;;;1.30;;
52015;SDS011;38032;53.326;6.472;2022-09-03T13:15:23;5.18;;;1.30;;
52015;SDS011;38032;53.326;6.472;2022-09-03T13:20:34;3.53;;;1.40;;
52015;SDS011;38032;53.326;6.472;2022-09-03T13:23:20;3.33;;;1.38;;
52015;SDS011;38032;53.326;6.472;2022-09-03T13:25:53;3.10;;;1.27;;
52015;SDS011;38032;53.326;6.472;2022-09-03T13:28:38;2.85;;;1.50;;
52015;SDS011;38032;53.326;6.472;2022-09-03T13:31:39;2.30;;;1.20;;
52015;SDS011;38032;53.326;6.472;2022-09-03T13:34:34;1.90;;;1.20;;
52015;SDS011;38032;53.326;6.472;2022-09-03T13:39:34;2.45;;;1.35;;
52015;SDS011;38032;53.326;6.472;2022-09-03T13:42:12;2.55;;;1.20;;
52015;SDS011;38032;53.326;6.472;2022-09-03T13:44:49;2.70;;;1.33;;
52015;SDS011;38032;53.326;6.472;2022-09-03T13:47:24;3.22;;;1.38;;
52015;SDS011;38032;53.326;6.472;2022-09-03T13:50:07;2.33;;;1.40;;
52015;SDS011;38032;53.326;6.472;2022-09-03T13:55:48;3.30;;;1.50;;
52015;SDS011;38032;53.326;6.472;2022-09-03T13:58:40;2.85;;;1.50;;
52015;SDS011;38032;53.326;6.472;2022-09-03T14:03:48;3.55;;;1.65;;
52015;SDS011;38032;53.326;6.472;2022-09-03T14:11:28;3.97;;;1.38;;
52015;SDS011;38032;53.326;6.472;2022-09-03T14:14:15;3.10;;;1.25;;
52015;SDS011;38032;53.326;6.472;2022-09-03T14:16:58;5.50;;;1.60;;
52015;SDS011;38032;53.326;6.472;2022-09-03T14:19:42;2.95;;;1.30;;
52015;SDS011;38032;53.326;6.472;2022-09-03T14:22:12;3.60;;;1.40;;
52015;SDS011;38032;53.326;6.472;2022-09-03T14:27:26;4.30;;;1.30;;
52015;SDS011;38032;53.326;6.472;2022-09-03T14:29:58;2.63;;;1.20;;
52015;SDS011;38032;53.326;6.472;2022-09-03T14:32:42;2.47;;;1.33;;
52015;SDS011;38032;53.326;6.472;2022-09-03T14:38:06;3.85;;;1.55;;
52015;SDS011;38032;53.326;6.472;2022-09-03T14:40:44;2.65;;;1.35;;
52015;SDS011;38032;53.326;6.472;2022-09-03T14:51:11;5.28;;;1.50;;
52015;SDS011;38032;53.326;6.472;2022-09-03T15:01:54;2.20;;;1.30;;
52015;SDS011;38032;53.326;6.472;2022-09-03T15:04:58;2.13;;;1.48;;
52015;SDS011;38032;53.326;6.472;2022-09-03T15:07:32;3.63;;;1.42;;
52015;SDS011;38032;53.326;6.472;2022-09-03T15:12:51;3.17;;;1.33;;
52015;SDS011;38032;53.326;6.472;2022-09-03T15:17:54;3.80;;;1.30;;
52015;SDS011;38032;53.326;6.472;2022-09-03T15:23:07;3.40;;;1.25;;
52015;SDS011;38032;53.326;6.472;2022-09-03T15:31:10;3.90;;;1.40;;
52015;SDS011;38032;53.326;6.472;2022-09-03T15:34:01;3.58;;;1.50;;
52015;SDS011;38032;53.326;6.472;2022-09-03T15:36:39;3.58;;;1.50;;
52015;SDS011;38032;53.326;6.472;2022-09-03T15:41:43;3.15;;;1.48;;
52015;SDS011;38032;53.326;6.472;2022-09-03T15:44:15;3.08;;;1.50;;
52015;SDS011;38032;53.326;6.472;2022-09-03T15:57:36;3.95;;;1.60;;
52015;SDS011;38032;53.326;6.472;2022-09-03T16:00:12;4.63;;;1.60;;
52015;SDS011;38032;53.326;6.472;2022-09-03T16:02:45;5.18;;;2.00;;
52015;SDS011;38032;53.326;6.472;2022-09-03T16:07:53;3.65;;;1.80;;
52015;SDS011;38032;53.326;6.472;2022-09-03T16:10:35;4.43;;;1.70;;
52015;SDS011;38032;53.326;6.472;2022-09-03T16:13:31;4.43;;;1.60;;
52015;SDS011;38032;53.326;6.472;2022-09-03T16:16:07;4.47;;;1.40;;
52015;SDS011;38032;53.326;6.472;2022-09-03T16:18:39;3.17;;;1.60;;
52015;SDS011;38032;53.326;6.472;2022-09-03T16:21:13;4.82;;;1.58;;
52015;SDS011;38032;53.326;6.472;2022-09-03T16:29:11;2.78;;;1.60;;
52015;SDS011;38032;53.326;6.472;2022-09-03T16:32:00;4.60;;;1.55;;
52015;SDS011;38032;53.326;6.472;2022-09-03T16:42:58;6.50;;;1.73;;
52015;SDS011;38032;53.326;6.472;2022-09-03T16:45:44;4.10;;;1.60;;
52015;SDS011;38032;53.326;6.472;2022-09-03T16:53:40;2.50;;;1.52;;
52015;SDS011;38032;53.326;6.472;2022-09-03T16:56:32;3.13;;;1.50;;
52015;SDS011;38032;53.326;6.472;2022-09-03T17:01:59;4.30;;;1.73;;
52015;SDS011;38032;53.326;6.472;2022-09-03T17:07:14;7.03;;;1.58;;
52015;SDS011;38032;53.326;6.472;2022-09-03T17:17:49;6.15;;;1.60;;
52015;SDS011;38032;53.326;6.472;2022-09-03T17:20:36;3.10;;;1.70;;
52015;SDS011;38032;53.326;6.472;2022-09-03T17:23:29;3.28;;;1.40;;
52015;SDS011;38032;53.326;6.472;2022-09-03T17:26:10;2.20;;;1.50;;
52015;SDS011;38032;53.326;6.472;2022-09-03T17:28:56;5.55;;;1.70;;
52015;SDS011;38032;53.326;6.472;2022-09-03T17:31:39;3.38;;;1.73;;
52015;SDS011;38032;53.326;6.472;2022-09-03T17:34:42;3.85;;;1.60;;
52015;SDS011;38032;53.326;6.472;2022-09-03T17:37:29;4.53;;;1.55;;
52015;SDS011;38032;53.326;6.472;2022-09-03T17:40:27;4.05;;;1.60;;
52015;SDS011;38032;53.326;6.472;2022-09-03T17:48:14;2.35;;;1.55;;
52015;SDS011;38032;53.326;6.472;2022-09-03T17:50:53;2.75;;;1.80;;
52015;SDS011;38032;53.326;6.472;2022-09-03T17:53:33;6.13;;;1.80;;
52015;SDS011;38032;53.326;6.472;2022-09-03T17:56:08;2.70;;;1.52;;
52015;SDS011;38032;53.326;6.472;2022-09-03T17:58:47;5.80;;;1.60;;
52015;SDS011;38032;53.326;6.472;2022-09-03T18:01:19;3.97;;;1.70;;
52015;SDS011;38032;53.326;6.472;2022-09-03T18:03:53;2.10;;;1.50;;
52015;SDS011;38032;53.326;6.472;2022-09-03T18:06:27;5.22;;;2.10;;
52015;SDS011;38032;53.326;6.472;2022-09-03T18:11:48;7.43;;;1.83;;
52015;SDS011;38032;53.326;6.472;2022-09-03T18:16:53;4.63;;;1.88;;
52015;SDS011;38032;53.326;6.472;2022-09-03T18:22:19;5.93;;;1.90;;
52015;SDS011;38032;53.326;6.472;2022-09-03T18:25:07;2.50;;;1.73;;
52015;SDS011;38032;53.326;6.472;2022-09-03T18:27:56;5.63;;;1.80;;